sensor_id;sensor_type;location;lat;lon;timestamp;temperature;humidity
25214;DHT22;13160;51.834;4.706;2023-04-29T00:00:10;10.60;99.90
25214;DHT22;13160;51.834;4.706;2023-04-29T00:02:40;10.60;99.90
25214;DHT22;13160;51.834;4.706;2023-04-29T00:05:09;10.60;99.90
25214;DHT22;13160;51.834;4.706;2023-04-29T00:07:38;10.60;99.90
25214;DHT22;13160;51.834;4.706;2023-04-29T00:10:07;10.60;99.90
25214;DHT22;13160;51.834;4.706;2023-04-29T00:12:36;10.60;99.90
25214;DHT22;13160;51.834;4.706;2023-04-29T00:15:07;10.60;99.90
25214;DHT22;13160;51.834;4.706;2023-04-29T00:17:36;10.60;99.90
25214;DHT22;13160;51.834;4.706;2023-04-29T00:20:06;10.60;99.90
25214;DHT22;13160;51.834;4.706;2023-04-29T00:22:36;10.60;99.90
25214;DHT22;13160;51.834;4.706;2023-04-29T00:25:05;10.60;99.90
25214;DHT22;13160;51.834;4.706;2023-04-29T00:27:35;10.60;99.90
25214;DHT22;13160;51.834;4.706;2023-04-29T00:30:08;10.60;99.90
25214;DHT22;13160;51.834;4.706;2023-04-29T00:32:37;10.60;99.90
25214;DHT22;13160;51.834;4.706;2023-04-29T00:35:06;10.60;99.90
25214;DHT22;13160;51.834;4.706;2023-04-29T00:37:36;10.70;99.90
25214;DHT22;13160;51.834;4.706;2023-04-29T00:40:06;10.70;99.90
25214;DHT22;13160;51.834;4.706;2023-04-29T00:42:36;10.60;99.90
25214;DHT22;13160;51.834;4.706;2023-04-29T00:45:14;10.60;99.90
25214;DHT22;13160;51.834;4.706;2023-04-29T00:47:43;10.60;99.90
25214;DHT22;13160;51.834;4.706;2023-04-29T00:50:11;10.60;99.90
25214;DHT22;13160;51.834;4.706;2023-04-29T00:52:41;10.60;99.90
25214;DHT22;13160;51.834;4.706;2023-04-29T00:55:10;10.60;99.90
25214;DHT22;13160;51.834;4.706;2023-04-29T00:57:39;10.60;99.90
25214;DHT22;13160;51.834;4.706;2023-04-29T01:00:09;10.60;99.90
25214;DHT22;13160;51.834;4.706;2023-04-29T01:02:39;10.60;99.90
25214;DHT22;13160;51.834;4.706;2023-04-29T01:05:08;10.60;99.90
25214;DHT22;13160;51.834;4.706;2023-04-29T01:07:44;10.60;99.90
25214;DHT22;13160;51.834;4.706;2023-04-29T01:10:25;10.60;99.90
25214;DHT22;13160;51.834;4.706;2023-04-29T01:13:04;10.60;99.90
25214;DHT22;13160;51.834;4.706;2023-04-29T01:15:42;10.60;99.90
25214;DHT22;13160;51.834;4.706;2023-04-29T01:18:19;10.60;99.90
25214;DHT22;13160;51.834;4.706;2023-04-29T01:20:51;10.60;99.90
25214;DHT22;13160;51.834;4.706;2023-04-29T01:23:19;10.50;99.90
25214;DHT22;13160;51.834;4.706;2023-04-29T01:25:50;10.60;99.90
25214;DHT22;13160;51.834;4.706;2023-04-29T01:28:25;10.50;99.90
25214;DHT22;13160;51.834;4.706;2023-04-29T01:31:05;10.50;99.90
25214;DHT22;13160;51.834;4.706;2023-04-29T01:33:40;10.50;99.90
25214;DHT22;13160;51.834;4.706;2023-04-29T01:36:28;10.50;99.90
25214;DHT22;13160;51.834;4.706;2023-04-29T01:39:11;10.50;99.90
25214;DHT22;13160;51.834;4.706;2023-04-29T01:41:44;10.50;99.90
25214;DHT22;13160;51.834;4.706;2023-04-29T01:44:22;10.50;99.90
25214;DHT22;13160;51.834;4.706;2023-04-29T01:46:52;10.50;99.90
25214;DHT22;13160;51.834;4.706;2023-04-29T01:49:23;10.40;99.90
25214;DHT22;13160;51.834;4.706;2023-04-29T01:51:51;10.40;99.90
25214;DHT22;13160;51.834;4.706;2023-04-29T01:54:20;10.40;99.90
25214;DHT22;13160;51.834;4.706;2023-04-29T01:56:50;10.40;99.90
25214;DHT22;13160;51.834;4.706;2023-04-29T01:59:19;10.40;99.90
25214;DHT22;13160;51.834;4.706;2023-04-29T02:01:48;10.40;99.90
25214;DHT22;13160;51.834;4.706;2023-04-29T02:04:17;10.40;99.90
25214;DHT22;13160;51.834;4.706;2023-04-29T02:06:47;10.40;99.90
25214;DHT22;13160;51.834;4.706;2023-04-29T02:09:16;10.40;99.90
25214;DHT22;13160;51.834;4.706;2023-04-29T02:11:45;10.40;99.90
25214;DHT22;13160;51.834;4.706;2023-04-29T02:14:15;10.40;99.90
25214;DHT22;13160;51.834;4.706;2023-04-29T02:16:43;10.40;99.90
25214;DHT22;13160;51.834;4.706;2023-04-29T02:19:12;10.40;99.90
25214;DHT22;13160;51.834;4.706;2023-04-29T02:21:41;10.40;99.90
25214;DHT22;13160;51.834;4.706;2023-04-29T02:24:09;10.40;99.90
25214;DHT22;13160;51.834;4.706;2023-04-29T02:26:38;10.40;99.90
25214;DHT22;13160;51.834;4.706;2023-04-29T02:29:07;10.40;99.90
25214;DHT22;13160;51.834;4.706;2023-04-29T02:31:37;10.40;99.90
25214;DHT22;13160;51.834;4.706;2023-04-29T02:34:05;10.40;99.90
25214;DHT22;13160;51.834;4.706;2023-04-29T02:36:33;10.40;99.90
25214;DHT22;13160;51.834;4.706;2023-04-29T02:39:02;10.40;99.90
25214;DHT22;13160;51.834;4.706;2023-04-29T02:41:31;10.40;99.90
25214;DHT22;13160;51.834;4.706;2023-04-29T02:43:59;10.40;99.90
25214;DHT22;13160;51.834;4.706;2023-04-29T02:46:28;10.40;99.90
25214;DHT22;13160;51.834;4.706;2023-04-29T02:49:00;10.40;99.90
25214;DHT22;13160;51.834;4.706;2023-04-29T02:51:29;10.40;99.90
25214;DHT22;13160;51.834;4.706;2023-04-29T02:53:57;10.40;99.90
25214;DHT22;13160;51.834;4.706;2023-04-29T02:56:26;10.40;99.90
25214;DHT22;13160;51.834;4.706;2023-04-29T02:58:55;10.40;99.90
25214;DHT22;13160;51.834;4.706;2023-04-29T03:01:23;10.40;99.90
25214;DHT22;13160;51.834;4.706;2023-04-29T03:03:52;10.40;99.90
25214;DHT22;13160;51.834;4.706;2023-04-29T03:06:22;10.40;99.90
25214;DHT22;13160;51.834;4.706;2023-04-29T03:08:50;10.40;99.90
25214;DHT22;13160;51.834;4.706;2023-04-29T03:11:19;10.40;99.90
25214;DHT22;13160;51.834;4.706;2023-04-29T03:13:50;10.40;99.90
25214;DHT22;13160;51.834;4.706;2023-04-29T03:16:20;10.40;99.90
25214;DHT22;13160;51.834;4.706;2023-04-29T03:18:49;10.40;99.90
25214;DHT22;13160;51.834;4.706;2023-04-29T03:21:17;10.40;99.90
25214;DHT22;13160;51.834;4.706;2023-04-29T03:23:47;10.40;99.90
25214;DHT22;13160;51.834;4.706;2023-04-29T03:26:16;10.50;99.90
25214;DHT22;13160;51.834;4.706;2023-04-29T03:28:44;10.50;99.90
25214;DHT22;13160;51.834;4.706;2023-04-29T03:31:13;10.40;99.90
25214;DHT22;13160;51.834;4.706;2023-04-29T03:33:42;10.40;99.90
25214;DHT22;13160;51.834;4.706;2023-04-29T03:36:11;10.40;99.90
25214;DHT22;13160;51.834;4.706;2023-04-29T03:38:39;10.50;99.90
25214;DHT22;13160;51.834;4.706;2023-04-29T03:41:09;10.50;99.90
25214;DHT22;13160;51.834;4.706;2023-04-29T03:43:38;10.50;99.90
25214;DHT22;13160;51.834;4.706;2023-04-29T03:46:06;10.50;99.90
25214;DHT22;13160;51.834;4.706;2023-04-29T03:48:35;10.50;99.90
25214;DHT22;13160;51.834;4.706;2023-04-29T03:51:03;10.50;99.90
25214;DHT22;13160;51.834;4.706;2023-04-29T03:53:32;10.50;99.90
25214;DHT22;13160;51.834;4.706;2023-04-29T03:56:01;10.50;99.90
25214;DHT22;13160;51.834;4.706;2023-04-29T03:58:30;10.50;99.90
25214;DHT22;13160;51.834;4.706;2023-04-29T04:00:59;10.50;99.90
25214;DHT22;13160;51.834;4.706;2023-04-29T04:03:27;10.50;99.90
25214;DHT22;13160;51.834;4.706;2023-04-29T04:05:56;10.50;99.90
25214;DHT22;13160;51.834;4.706;2023-04-29T04:08:25;10.50;99.90
25214;DHT22;13160;51.834;4.706;2023-04-29T04:10:53;10.50;99.90
25214;DHT22;13160;51.834;4.706;2023-04-29T04:13:30;10.50;99.90
25214;DHT22;13160;51.834;4.706;2023-04-29T04:15:58;10.50;99.90
25214;DHT22;13160;51.834;4.706;2023-04-29T04:18:27;10.50;99.90
25214;DHT22;13160;51.834;4.706;2023-04-29T04:20:55;10.50;99.90
25214;DHT22;13160;51.834;4.706;2023-04-29T04:23:23;10.50;99.90
25214;DHT22;13160;51.834;4.706;2023-04-29T04:25:52;10.50;99.90
25214;DHT22;13160;51.834;4.706;2023-04-29T04:28:20;10.50;99.90
25214;DHT22;13160;51.834;4.706;2023-04-29T04:30:50;10.50;99.90
25214;DHT22;13160;51.834;4.706;2023-04-29T04:33:19;10.50;99.90
25214;DHT22;13160;51.834;4.706;2023-04-29T04:35:47;10.50;99.90
25214;DHT22;13160;51.834;4.706;2023-04-29T04:38:16;10.50;99.90
25214;DHT22;13160;51.834;4.706;2023-04-29T04:40:44;10.50;99.90
25214;DHT22;13160;51.834;4.706;2023-04-29T04:43:12;10.60;99.90
25214;DHT22;13160;51.834;4.706;2023-04-29T04:45:41;10.60;99.90
25214;DHT22;13160;51.834;4.706;2023-04-29T04:48:11;10.60;99.90
25214;DHT22;13160;51.834;4.706;2023-04-29T04:50:40;10.60;99.90
25214;DHT22;13160;51.834;4.706;2023-04-29T04:53:09;10.60;99.90
25214;DHT22;13160;51.834;4.706;2023-04-29T04:55:37;10.60;99.90
25214;DHT22;13160;51.834;4.706;2023-04-29T04:58:06;10.60;99.90
25214;DHT22;13160;51.834;4.706;2023-04-29T05:00:34;10.60;99.90
25214;DHT22;13160;51.834;4.706;2023-04-29T05:03:03;10.60;99.90
25214;DHT22;13160;51.834;4.706;2023-04-29T05:05:33;10.60;99.90
25214;DHT22;13160;51.834;4.706;2023-04-29T05:08:02;10.60;99.90
25214;DHT22;13160;51.834;4.706;2023-04-29T05:10:35;10.60;99.90
25214;DHT22;13160;51.834;4.706;2023-04-29T05:13:03;10.60;99.90
25214;DHT22;13160;51.834;4.706;2023-04-29T05:15:32;10.60;99.90
25214;DHT22;13160;51.834;4.706;2023-04-29T05:18:01;10.70;99.90
25214;DHT22;13160;51.834;4.706;2023-04-29T05:20:30;10.70;99.90
25214;DHT22;13160;51.834;4.706;2023-04-29T05:23:00;10.70;99.90
25214;DHT22;13160;51.834;4.706;2023-04-29T05:25:29;10.70;99.90
25214;DHT22;13160;51.834;4.706;2023-04-29T05:27:58;10.70;99.90
25214;DHT22;13160;51.834;4.706;2023-04-29T05:30:26;10.70;99.90
25214;DHT22;13160;51.834;4.706;2023-04-29T05:32:55;10.80;99.90
25214;DHT22;13160;51.834;4.706;2023-04-29T05:35:23;10.80;99.90
25214;DHT22;13160;51.834;4.706;2023-04-29T05:37:52;10.80;99.90
25214;DHT22;13160;51.834;4.706;2023-04-29T05:40:22;10.80;99.90
25214;DHT22;13160;51.834;4.706;2023-04-29T05:42:50;10.80;99.90
25214;DHT22;13160;51.834;4.706;2023-04-29T05:45:19;10.80;99.90
25214;DHT22;13160;51.834;4.706;2023-04-29T05:47:50;10.80;99.90
25214;DHT22;13160;51.834;4.706;2023-04-29T05:50:18;10.80;99.90
25214;DHT22;13160;51.834;4.706;2023-04-29T05:52:47;10.80;99.90
25214;DHT22;13160;51.834;4.706;2023-04-29T05:55:15;10.80;99.90
25214;DHT22;13160;51.834;4.706;2023-04-29T05:57:45;10.80;99.90
25214;DHT22;13160;51.834;4.706;2023-04-29T06:00:14;10.80;99.90
25214;DHT22;13160;51.834;4.706;2023-04-29T06:02:42;10.90;99.90
25214;DHT22;13160;51.834;4.706;2023-04-29T06:05:24;10.90;99.90
25214;DHT22;13160;51.834;4.706;2023-04-29T06:07:53;10.90;99.90
25214;DHT22;13160;51.834;4.706;2023-04-29T06:10:22;10.90;99.90
25214;DHT22;13160;51.834;4.706;2023-04-29T06:12:51;10.90;99.90
25214;DHT22;13160;51.834;4.706;2023-04-29T06:15:20;10.90;99.90
25214;DHT22;13160;51.834;4.706;2023-04-29T06:17:49;11.00;99.90
25214;DHT22;13160;51.834;4.706;2023-04-29T06:20:18;11.00;99.90
25214;DHT22;13160;51.834;4.706;2023-04-29T06:22:49;11.00;99.90
25214;DHT22;13160;51.834;4.706;2023-04-29T06:25:18;11.00;99.90
25214;DHT22;13160;51.834;4.706;2023-04-29T06:27:46;11.10;99.90
25214;DHT22;13160;51.834;4.706;2023-04-29T06:30:17;11.10;99.90
25214;DHT22;13160;51.834;4.706;2023-04-29T06:32:47;11.10;99.90
25214;DHT22;13160;51.834;4.706;2023-04-29T06:35:16;11.10;99.90
25214;DHT22;13160;51.834;4.706;2023-04-29T06:37:44;11.20;99.90
25214;DHT22;13160;51.834;4.706;2023-04-29T06:40:13;11.20;99.90
25214;DHT22;13160;51.834;4.706;2023-04-29T06:42:41;11.30;99.90
25214;DHT22;13160;51.834;4.706;2023-04-29T06:45:10;11.30;99.90
25214;DHT22;13160;51.834;4.706;2023-04-29T06:47:40;11.40;99.90
25214;DHT22;13160;51.834;4.706;2023-04-29T06:50:10;11.40;99.90
25214;DHT22;13160;51.834;4.706;2023-04-29T06:52:38;11.40;99.90
25214;DHT22;13160;51.834;4.706;2023-04-29T06:55:07;11.40;99.90
25214;DHT22;13160;51.834;4.706;2023-04-29T06:57:37;11.40;99.90
25214;DHT22;13160;51.834;4.706;2023-04-29T07:00:06;11.50;99.90
25214;DHT22;13160;51.834;4.706;2023-04-29T07:02:36;11.50;99.90
25214;DHT22;13160;51.834;4.706;2023-04-29T07:05:07;11.60;99.90
25214;DHT22;13160;51.834;4.706;2023-04-29T07:07:36;11.70;99.90
25214;DHT22;13160;51.834;4.706;2023-04-29T07:10:05;11.70;99.90
25214;DHT22;13160;51.834;4.706;2023-04-29T07:12:34;11.80;99.90
25214;DHT22;13160;51.834;4.706;2023-04-29T07:15:03;11.90;99.90
25214;DHT22;13160;51.834;4.706;2023-04-29T07:17:33;12.00;99.90
25214;DHT22;13160;51.834;4.706;2023-04-29T07:20:02;12.00;99.90
25214;DHT22;13160;51.834;4.706;2023-04-29T07:22:34;12.00;99.90
25214;DHT22;13160;51.834;4.706;2023-04-29T07:25:03;12.00;99.90
25214;DHT22;13160;51.834;4.706;2023-04-29T07:27:32;12.10;99.90
25214;DHT22;13160;51.834;4.706;2023-04-29T07:30:01;12.10;99.90
25214;DHT22;13160;51.834;4.706;2023-04-29T07:32:30;12.20;99.90
25214;DHT22;13160;51.834;4.706;2023-04-29T07:34:59;12.20;99.90
25214;DHT22;13160;51.834;4.706;2023-04-29T07:37:28;12.20;99.90
25214;DHT22;13160;51.834;4.706;2023-04-29T07:39:58;12.30;99.90
25214;DHT22;13160;51.834;4.706;2023-04-29T07:42:26;12.40;99.90
25214;DHT22;13160;51.834;4.706;2023-04-29T07:44:55;12.40;99.90
25214;DHT22;13160;51.834;4.706;2023-04-29T07:47:23;12.50;99.90
25214;DHT22;13160;51.834;4.706;2023-04-29T07:49:52;12.60;99.90
25214;DHT22;13160;51.834;4.706;2023-04-29T07:52:20;12.70;99.90
25214;DHT22;13160;51.834;4.706;2023-04-29T07:54:48;12.70;99.90
25214;DHT22;13160;51.834;4.706;2023-04-29T07:57:19;12.70;99.90
25214;DHT22;13160;51.834;4.706;2023-04-29T07:59:50;12.80;99.90
25214;DHT22;13160;51.834;4.706;2023-04-29T08:02:19;12.80;99.90
25214;DHT22;13160;51.834;4.706;2023-04-29T08:04:49;12.90;99.90
25214;DHT22;13160;51.834;4.706;2023-04-29T08:07:18;12.90;99.90
25214;DHT22;13160;51.834;4.706;2023-04-29T08:09:51;13.00;99.90
25214;DHT22;13160;51.834;4.706;2023-04-29T08:12:21;13.10;99.90
25214;DHT22;13160;51.834;4.706;2023-04-29T08:14:49;13.20;99.90
25214;DHT22;13160;51.834;4.706;2023-04-29T08:17:18;13.40;99.90
25214;DHT22;13160;51.834;4.706;2023-04-29T08:19:47;13.60;99.90
25214;DHT22;13160;51.834;4.706;2023-04-29T08:22:16;13.70;99.90
25214;DHT22;13160;51.834;4.706;2023-04-29T08:24:45;13.90;99.90
25214;DHT22;13160;51.834;4.706;2023-04-29T08:27:14;13.90;99.90
25214;DHT22;13160;51.834;4.706;2023-04-29T08:29:44;13.90;99.90
25214;DHT22;13160;51.834;4.706;2023-04-29T08:32:13;13.90;99.90
25214;DHT22;13160;51.834;4.706;2023-04-29T08:34:41;14.00;99.90
25214;DHT22;13160;51.834;4.706;2023-04-29T08:37:10;14.00;99.90
25214;DHT22;13160;51.834;4.706;2023-04-29T08:39:39;13.90;99.90
25214;DHT22;13160;51.834;4.706;2023-04-29T08:42:09;13.80;99.90
25214;DHT22;13160;51.834;4.706;2023-04-29T08:44:39;13.90;99.90
25214;DHT22;13160;51.834;4.706;2023-04-29T08:47:09;14.00;99.90
25214;DHT22;13160;51.834;4.706;2023-04-29T08:49:40;14.00;99.90
25214;DHT22;13160;51.834;4.706;2023-04-29T08:52:09;14.20;99.90
25214;DHT22;13160;51.834;4.706;2023-04-29T08:54:38;14.40;99.90
25214;DHT22;13160;51.834;4.706;2023-04-29T08:57:09;14.60;99.90
25214;DHT22;13160;51.834;4.706;2023-04-29T08:59:38;14.80;99.90
25214;DHT22;13160;51.834;4.706;2023-04-29T09:02:10;15.00;99.90
25214;DHT22;13160;51.834;4.706;2023-04-29T09:04:46;15.00;99.90
25214;DHT22;13160;51.834;4.706;2023-04-29T09:07:16;15.00;99.90
25214;DHT22;13160;51.834;4.706;2023-04-29T09:09:46;15.00;99.90
25214;DHT22;13160;51.834;4.706;2023-04-29T09:12:16;15.00;99.90
25214;DHT22;13160;51.834;4.706;2023-04-29T09:14:45;15.00;99.90
25214;DHT22;13160;51.834;4.706;2023-04-29T09:17:18;15.00;99.90
25214;DHT22;13160;51.834;4.706;2023-04-29T09:19:47;15.00;99.90
25214;DHT22;13160;51.834;4.706;2023-04-29T09:22:15;15.10;99.90
25214;DHT22;13160;51.834;4.706;2023-04-29T09:24:44;15.20;99.90
25214;DHT22;13160;51.834;4.706;2023-04-29T09:27:25;15.20;99.90
25214;DHT22;13160;51.834;4.706;2023-04-29T09:29:59;15.20;99.90
25214;DHT22;13160;51.834;4.706;2023-04-29T09:32:30;15.20;99.90
25214;DHT22;13160;51.834;4.706;2023-04-29T09:34:58;15.20;99.90
25214;DHT22;13160;51.834;4.706;2023-04-29T09:37:50;15.20;99.90
25214;DHT22;13160;51.834;4.706;2023-04-29T09:40:30;15.20;99.90
25214;DHT22;13160;51.834;4.706;2023-04-29T09:43:17;15.40;99.90
25214;DHT22;13160;51.834;4.706;2023-04-29T09:45:47;15.50;99.90
25214;DHT22;13160;51.834;4.706;2023-04-29T09:48:17;15.60;99.90
25214;DHT22;13160;51.834;4.706;2023-04-29T09:50:58;15.70;99.90
25214;DHT22;13160;51.834;4.706;2023-04-29T09:53:30;15.80;99.90
25214;DHT22;13160;51.834;4.706;2023-04-29T09:56:00;15.70;99.90
25214;DHT22;13160;51.834;4.706;2023-04-29T09:58:30;15.80;99.90
25214;DHT22;13160;51.834;4.706;2023-04-29T10:01:04;15.70;99.90
25214;DHT22;13160;51.834;4.706;2023-04-29T10:03:36;15.70;99.90
25214;DHT22;13160;51.834;4.706;2023-04-29T10:06:06;15.80;99.90
25214;DHT22;13160;51.834;4.706;2023-04-29T10:08:35;15.80;99.90
25214;DHT22;13160;51.834;4.706;2023-04-29T10:11:04;15.90;99.90
25214;DHT22;13160;51.834;4.706;2023-04-29T10:13:34;16.10;99.90
25214;DHT22;13160;51.834;4.706;2023-04-29T10:16:14;16.20;99.90
25214;DHT22;13160;51.834;4.706;2023-04-29T10:18:53;16.20;99.90
25214;DHT22;13160;51.834;4.706;2023-04-29T10:21:27;16.20;99.90
25214;DHT22;13160;51.834;4.706;2023-04-29T10:23:58;16.20;99.90
25214;DHT22;13160;51.834;4.706;2023-04-29T10:26:28;16.20;99.90
25214;DHT22;13160;51.834;4.706;2023-04-29T10:28:59;16.20;99.90
25214;DHT22;13160;51.834;4.706;2023-04-29T10:31:28;16.40;99.90
25214;DHT22;13160;51.834;4.706;2023-04-29T10:33:58;16.40;99.90
25214;DHT22;13160;51.834;4.706;2023-04-29T10:36:27;16.50;99.90
25214;DHT22;13160;51.834;4.706;2023-04-29T10:38:58;16.60;99.90
25214;DHT22;13160;51.834;4.706;2023-04-29T10:41:33;16.50;99.90
25214;DHT22;13160;51.834;4.706;2023-04-29T10:44:04;16.50;99.90
25214;DHT22;13160;51.834;4.706;2023-04-29T10:46:33;16.50;99.90
25214;DHT22;13160;51.834;4.706;2023-04-29T10:49:03;16.50;99.90
25214;DHT22;13160;51.834;4.706;2023-04-29T10:51:34;16.50;99.90
25214;DHT22;13160;51.834;4.706;2023-04-29T10:54:06;16.60;99.90
25214;DHT22;13160;51.834;4.706;2023-04-29T10:56:37;16.60;99.90
25214;DHT22;13160;51.834;4.706;2023-04-29T10:59:11;16.60;99.90
25214;DHT22;13160;51.834;4.706;2023-04-29T11:01:48;16.70;99.90
25214;DHT22;13160;51.834;4.706;2023-04-29T11:04:19;16.70;99.90
25214;DHT22;13160;51.834;4.706;2023-04-29T11:06:51;16.70;99.90
25214;DHT22;13160;51.834;4.706;2023-04-29T11:09:24;16.70;99.90
25214;DHT22;13160;51.834;4.706;2023-04-29T11:11:59;16.80;99.90
25214;DHT22;13160;51.834;4.706;2023-04-29T11:14:31;16.80;99.90
25214;DHT22;13160;51.834;4.706;2023-04-29T11:17:06;16.90;99.90
25214;DHT22;13160;51.834;4.706;2023-04-29T11:19:41;17.00;99.90
25214;DHT22;13160;51.834;4.706;2023-04-29T11:22:22;17.10;99.90
25214;DHT22;13160;51.834;4.706;2023-04-29T11:24:54;17.20;99.90
25214;DHT22;13160;51.834;4.706;2023-04-29T11:27:26;17.40;99.90
25214;DHT22;13160;51.834;4.706;2023-04-29T11:29:55;17.60;99.90
25214;DHT22;13160;51.834;4.706;2023-04-29T11:32:26;17.60;99.90
25214;DHT22;13160;51.834;4.706;2023-04-29T11:35:08;17.60;99.90
25214;DHT22;13160;51.834;4.706;2023-04-29T11:37:38;17.50;99.90
25214;DHT22;13160;51.834;4.706;2023-04-29T11:40:09;17.40;99.90
25214;DHT22;13160;51.834;4.706;2023-04-29T11:42:42;17.40;99.90
25214;DHT22;13160;51.834;4.706;2023-04-29T11:45:17;17.40;99.90
25214;DHT22;13160;51.834;4.706;2023-04-29T11:47:47;17.40;99.90
25214;DHT22;13160;51.834;4.706;2023-04-29T11:50:21;17.50;99.90
25214;DHT22;13160;51.834;4.706;2023-04-29T11:52:49;17.60;99.90
25214;DHT22;13160;51.834;4.706;2023-04-29T11:55:18;17.70;99.90
25214;DHT22;13160;51.834;4.706;2023-04-29T11:57:48;17.70;99.90
25214;DHT22;13160;51.834;4.706;2023-04-29T12:00:18;17.70;99.90
25214;DHT22;13160;51.834;4.706;2023-04-29T12:02:49;17.80;99.90
25214;DHT22;13160;51.834;4.706;2023-04-29T12:05:22;17.90;99.90
25214;DHT22;13160;51.834;4.706;2023-04-29T12:07:54;18.00;99.90
25214;DHT22;13160;51.834;4.706;2023-04-29T12:10:22;18.10;99.10
25214;DHT22;13160;51.834;4.706;2023-04-29T12:12:51;18.20;98.20
25214;DHT22;13160;51.834;4.706;2023-04-29T12:15:19;18.30;97.50
25214;DHT22;13160;51.834;4.706;2023-04-29T12:17:48;18.40;97.20
25214;DHT22;13160;51.834;4.706;2023-04-29T12:20:17;18.50;96.70
25214;DHT22;13160;51.834;4.706;2023-04-29T12:22:47;18.50;96.80
25214;DHT22;13160;51.834;4.706;2023-04-29T12:25:16;18.50;96.80
25214;DHT22;13160;51.834;4.706;2023-04-29T12:27:47;18.50;97.00
25214;DHT22;13160;51.834;4.706;2023-04-29T12:30:16;18.40;97.00
25214;DHT22;13160;51.834;4.706;2023-04-29T12:32:44;18.40;96.90
25214;DHT22;13160;51.834;4.706;2023-04-29T12:35:14;18.40;97.00
25214;DHT22;13160;51.834;4.706;2023-04-29T12:37:48;18.30;96.50
25214;DHT22;13160;51.834;4.706;2023-04-29T12:40:17;18.40;96.40
25214;DHT22;13160;51.834;4.706;2023-04-29T12:42:47;18.40;96.50
25214;DHT22;13160;51.834;4.706;2023-04-29T12:45:26;18.60;96.60
25214;DHT22;13160;51.834;4.706;2023-04-29T12:47:56;18.70;96.00
25214;DHT22;13160;51.834;4.706;2023-04-29T12:50:32;18.80;95.90
25214;DHT22;13160;51.834;4.706;2023-04-29T12:53:06;19.00;95.10
25214;DHT22;13160;51.834;4.706;2023-04-29T12:55:36;19.00;94.90
25214;DHT22;13160;51.834;4.706;2023-04-29T12:58:05;19.00;94.50
25214;DHT22;13160;51.834;4.706;2023-04-29T13:00:35;19.00;94.40
25214;DHT22;13160;51.834;4.706;2023-04-29T13:03:04;18.90;94.10
25214;DHT22;13160;51.834;4.706;2023-04-29T13:05:33;18.90;94.20
25214;DHT22;13160;51.834;4.706;2023-04-29T13:08:02;18.90;93.70
25214;DHT22;13160;51.834;4.706;2023-04-29T13:10:32;18.90;93.60
25214;DHT22;13160;51.834;4.706;2023-04-29T13:13:01;19.00;93.30
25214;DHT22;13160;51.834;4.706;2023-04-29T13:15:31;18.90;93.40
25214;DHT22;13160;51.834;4.706;2023-04-29T13:18:00;18.80;93.50
25214;DHT22;13160;51.834;4.706;2023-04-29T13:20:28;18.80;93.70
25214;DHT22;13160;51.834;4.706;2023-04-29T13:22:58;18.80;93.10
25214;DHT22;13160;51.834;4.706;2023-04-29T13:25:28;18.80;92.60
25214;DHT22;13160;51.834;4.706;2023-04-29T13:27:57;18.80;92.40
25214;DHT22;13160;51.834;4.706;2023-04-29T13:30:25;18.90;92.40
25214;DHT22;13160;51.834;4.706;2023-04-29T13:32:54;18.90;92.30
25214;DHT22;13160;51.834;4.706;2023-04-29T13:35:33;19.00;91.90
25214;DHT22;13160;51.834;4.706;2023-04-29T13:38:04;19.00;91.60
25214;DHT22;13160;51.834;4.706;2023-04-29T13:40:34;19.10;91.70
25214;DHT22;13160;51.834;4.706;2023-04-29T13:43:11;19.20;91.70
25214;DHT22;13160;51.834;4.706;2023-04-29T13:45:54;19.20;91.30
25214;DHT22;13160;51.834;4.706;2023-04-29T13:48:23;19.20;91.20
25214;DHT22;13160;51.834;4.706;2023-04-29T13:50:58;19.20;90.40
25214;DHT22;13160;51.834;4.706;2023-04-29T13:53:49;19.10;90.10
25214;DHT22;13160;51.834;4.706;2023-04-29T13:56:22;19.10;90.00
25214;DHT22;13160;51.834;4.706;2023-04-29T13:58:54;19.10;90.10
25214;DHT22;13160;51.834;4.706;2023-04-29T14:01:25;19.10;90.00
25214;DHT22;13160;51.834;4.706;2023-04-29T14:03:57;19.10;90.10
25214;DHT22;13160;51.834;4.706;2023-04-29T14:06:26;19.20;90.00
25214;DHT22;13160;51.834;4.706;2023-04-29T14:08:56;19.10;89.60
25214;DHT22;13160;51.834;4.706;2023-04-29T14:11:28;19.10;90.00
25214;DHT22;13160;51.834;4.706;2023-04-29T14:13:57;19.10;89.80
25214;DHT22;13160;51.834;4.706;2023-04-29T14:16:26;19.10;88.90
25214;DHT22;13160;51.834;4.706;2023-04-29T14:18:55;19.10;88.90
25214;DHT22;13160;51.834;4.706;2023-04-29T14:21:26;19.10;89.80
25214;DHT22;13160;51.834;4.706;2023-04-29T14:23:54;19.00;89.70
25214;DHT22;13160;51.834;4.706;2023-04-29T14:26:23;19.00;89.90
25214;DHT22;13160;51.834;4.706;2023-04-29T14:28:55;19.00;89.80
25214;DHT22;13160;51.834;4.706;2023-04-29T14:31:26;19.00;89.70
25214;DHT22;13160;51.834;4.706;2023-04-29T14:33:56;18.90;89.70
25214;DHT22;13160;51.834;4.706;2023-04-29T14:36:25;18.90;90.00
25214;DHT22;13160;51.834;4.706;2023-04-29T14:38:54;18.80;90.40
25214;DHT22;13160;51.834;4.706;2023-04-29T14:41:22;18.80;90.80
25214;DHT22;13160;51.834;4.706;2023-04-29T14:43:51;18.70;90.80
25214;DHT22;13160;51.834;4.706;2023-04-29T14:46:21;18.60;91.00
25214;DHT22;13160;51.834;4.706;2023-04-29T14:48:49;18.60;91.20
25214;DHT22;13160;51.834;4.706;2023-04-29T14:51:17;18.50;91.40
25214;DHT22;13160;51.834;4.706;2023-04-29T14:53:46;18.40;91.60
25214;DHT22;13160;51.834;4.706;2023-04-29T14:56:15;18.40;92.00
25214;DHT22;13160;51.834;4.706;2023-04-29T14:58:44;18.40;92.10
25214;DHT22;13160;51.834;4.706;2023-04-29T15:01:12;18.40;92.20
25214;DHT22;13160;51.834;4.706;2023-04-29T15:03:42;18.40;92.40
25214;DHT22;13160;51.834;4.706;2023-04-29T15:06:13;18.30;92.60
25214;DHT22;13160;51.834;4.706;2023-04-29T15:08:42;18.30;92.70
25214;DHT22;13160;51.834;4.706;2023-04-29T15:11:10;18.20;93.00
25214;DHT22;13160;51.834;4.706;2023-04-29T15:13:39;18.10;93.10
25214;DHT22;13160;51.834;4.706;2023-04-29T15:16:07;18.00;93.50
25214;DHT22;13160;51.834;4.706;2023-04-29T15:18:37;18.00;93.70
25214;DHT22;13160;51.834;4.706;2023-04-29T15:21:06;18.00;93.60
25214;DHT22;13160;51.834;4.706;2023-04-29T15:23:35;18.10;93.50
25214;DHT22;13160;51.834;4.706;2023-04-29T15:26:03;18.10;93.10
25214;DHT22;13160;51.834;4.706;2023-04-29T15:28:32;18.10;92.60
25214;DHT22;13160;51.834;4.706;2023-04-29T15:31:01;18.10;92.60
25214;DHT22;13160;51.834;4.706;2023-04-29T15:33:30;18.10;92.70
25214;DHT22;13160;51.834;4.706;2023-04-29T15:35:59;18.00;93.20
25214;DHT22;13160;51.834;4.706;2023-04-29T15:38:29;18.00;93.60
25214;DHT22;13160;51.834;4.706;2023-04-29T15:40:58;18.00;93.80
25214;DHT22;13160;51.834;4.706;2023-04-29T15:43:29;18.00;93.90
25214;DHT22;13160;51.834;4.706;2023-04-29T15:45:58;18.00;93.90
25214;DHT22;13160;51.834;4.706;2023-04-29T15:48:27;17.90;93.90